sensor_id;sensor_type;location;lat;lon;timestamp;P1;durP1;ratioP1;P2;durP2;ratioP2
23747;SDS011;12054;53.662;10.126;2022-08-01T00:00:05;15.75;;;12.77;;
23747;SDS011;12054;53.662;10.126;2022-08-01T00:02:32;14.57;;;12.55;;
23747;SDS011;12054;53.662;10.126;2022-08-01T00:04:58;16.65;;;13.40;;
23747;SDS011;12054;53.662;10.126;2022-08-01T00:07:25;16.25;;;13.05;;
23747;SDS011;12054;53.662;10.126;2022-08-01T00:09:50;15.35;;;13.07;;
23747;SDS011;12054;53.662;10.126;2022-08-01T00:12:16;15.68;;;12.27;;
23747;SDS011;12054;53.662;10.126;2022-08-01T00:14:42;16.17;;;12.10;;
23747;SDS011;12054;53.662;10.126;2022-08-01T00:17:07;13.65;;;11.40;;
23747;SDS011;12054;53.662;10.126;2022-08-01T00:19:33;16.20;;;12.27;;
23747;SDS011;12054;53.662;10.126;2022-08-01T00:21:59;17.73;;;12.15;;
23747;SDS011;12054;53.662;10.126;2022-08-01T00:24:24;13.60;;;10.98;;
23747;SDS011;12054;53.662;10.126;2022-08-01T00:26:50;12.90;;;11.50;;
23747;SDS011;12054;53.662;10.126;2022-08-01T00:29:16;11.73;;;9.40;;
23747;SDS011;12054;53.662;10.126;2022-08-01T00:31:41;13.20;;;11.48;;
23747;SDS011;12054;53.662;10.126;2022-08-01T00:34:07;13.52;;;10.77;;
23747;SDS011;12054;53.662;10.126;2022-08-01T00:36:32;13.60;;;11.30;;
23747;SDS011;12054;53.662;10.126;2022-08-01T00:38:58;12.93;;;10.20;;
23747;SDS011;12054;53.662;10.126;2022-08-01T00:41:23;12.43;;;10.32;;
23747;SDS011;12054;53.662;10.126;2022-08-01T00:43:49;14.90;;;10.70;;
23747;SDS011;12054;53.662;10.126;2022-08-01T00:46:14;14.55;;;10.95;;
23747;SDS011;12054;53.662;10.126;2022-08-01T00:48:40;16.10;;;11.63;;
23747;SDS011;12054;53.662;10.126;2022-08-01T00:51:05;14.10;;;10.85;;
23747;SDS011;12054;53.662;10.126;2022-08-01T00:53:32;14.10;;;10.93;;
23747;SDS011;12054;53.662;10.126;2022-08-01T00:55:58;13.68;;;10.25;;
23747;SDS011;12054;53.662;10.126;2022-08-01T00:58:24;12.50;;;10.10;;
23747;SDS011;12054;53.662;10.126;2022-08-01T01:00:50;12.98;;;10.05;;
23747;SDS011;12054;53.662;10.126;2022-08-01T01:03:16;15.15;;;10.80;;
23747;SDS011;12054;53.662;10.126;2022-08-01T01:05:48;14.82;;;10.73;;
23747;SDS011;12054;53.662;10.126;2022-08-01T01:08:51;13.13;;;9.82;;
23747;SDS011;12054;53.662;10.126;2022-08-01T01:11:53;14.95;;;10.80;;
23747;SDS011;12054;53.662;10.126;2022-08-01T01:17:21;13.68;;;9.85;;
23747;SDS011;12054;53.662;10.126;2022-08-01T01:19:52;13.30;;;10.35;;
23747;SDS011;12054;53.662;10.126;2022-08-01T01:22:36;13.60;;;10.35;;
23747;SDS011;12054;53.662;10.126;2022-08-01T01:30:43;12.32;;;9.10;;
23747;SDS011;12054;53.662;10.126;2022-08-01T01:33:11;12.20;;;9.02;;
23747;SDS011;12054;53.662;10.126;2022-08-01T01:35:41;16.42;;;10.15;;
23747;SDS011;12054;53.662;10.126;2022-08-01T01:38:13;15.38;;;9.27;;
23747;SDS011;12054;53.662;10.126;2022-08-01T01:40:43;15.00;;;9.55;;
23747;SDS011;12054;53.662;10.126;2022-08-01T01:43:10;14.25;;;9.40;;
23747;SDS011;12054;53.662;10.126;2022-08-01T01:45:37;14.68;;;9.60;;
23747;SDS011;12054;53.662;10.126;2022-08-01T01:48:03;14.63;;;9.05;;
23747;SDS011;12054;53.662;10.126;2022-08-01T01:50:31;16.08;;;10.25;;
23747;SDS011;12054;53.662;10.126;2022-08-01T01:52:57;12.38;;;9.07;;
23747;SDS011;12054;53.662;10.126;2022-08-01T01:55:24;13.18;;;8.55;;
23747;SDS011;12054;53.662;10.126;2022-08-01T01:57:51;16.70;;;9.95;;
23747;SDS011;12054;53.662;10.126;2022-08-01T02:00:17;12.77;;;9.52;;
23747;SDS011;12054;53.662;10.126;2022-08-01T02:02:43;13.10;;;8.90;;
23747;SDS011;12054;53.662;10.126;2022-08-01T02:05:11;11.85;;;8.57;;
23747;SDS011;12054;53.662;10.126;2022-08-01T02:07:37;12.13;;;8.57;;
23747;SDS011;12054;53.662;10.126;2022-08-01T02:10:04;13.10;;;8.10;;
23747;SDS011;12054;53.662;10.126;2022-08-01T02:12:35;11.30;;;7.75;;
23747;SDS011;12054;53.662;10.126;2022-08-01T02:15:03;11.05;;;7.60;;
23747;SDS011;12054;53.662;10.126;2022-08-01T02:17:29;8.65;;;6.72;;
23747;SDS011;12054;53.662;10.126;2022-08-01T02:19:56;9.10;;;6.60;;
23747;SDS011;12054;53.662;10.126;2022-08-01T02:22:26;7.97;;;6.22;;
23747;SDS011;12054;53.662;10.126;2022-08-01T02:25:42;10.90;;;6.90;;
23747;SDS011;12054;53.662;10.126;2022-08-01T02:27:50;11.93;;;7.00;;
23747;SDS011;12054;53.662;10.126;2022-08-01T02:30:26;7.78;;;6.60;;
23747;SDS011;12054;53.662;10.126;2022-08-01T02:35:47;10.32;;;6.03;;
23747;SDS011;12054;53.662;10.126;2022-08-01T02:38:15;7.88;;;6.32;;
23747;SDS011;12054;53.662;10.126;2022-08-01T02:40:43;8.18;;;6.00;;
23747;SDS011;12054;53.662;10.126;2022-08-01T02:43:12;10.13;;;6.70;;
23747;SDS011;12054;53.662;10.126;2022-08-01T02:45:44;10.98;;;6.70;;
23747;SDS011;12054;53.662;10.126;2022-08-01T02:48:13;7.68;;;6.22;;
23747;SDS011;12054;53.662;10.126;2022-08-01T02:50:41;10.52;;;6.05;;
23747;SDS011;12054;53.662;10.126;2022-08-01T02:53:09;7.43;;;5.95;;
23747;SDS011;12054;53.662;10.126;2022-08-01T02:55:38;13.55;;;6.63;;
23747;SDS011;12054;53.662;10.126;2022-08-01T02:58:06;9.50;;;6.40;;
23747;SDS011;12054;53.662;10.126;2022-08-01T03:00:33;8.60;;;6.32;;
23747;SDS011;12054;53.662;10.126;2022-08-01T03:03:00;10.77;;;6.90;;
23747;SDS011;12054;53.662;10.126;2022-08-01T03:05:27;7.00;;;5.05;;
23747;SDS011;12054;53.662;10.126;2022-08-01T03:07:55;7.38;;;5.80;;
23747;SDS011;12054;53.662;10.126;2022-08-01T03:10:22;8.90;;;6.38;;
23747;SDS011;12054;53.662;10.126;2022-08-01T03:12:51;8.50;;;6.32;;
23747;SDS011;12054;53.662;10.126;2022-08-01T03:15:17;8.55;;;6.90;;
23747;SDS011;12054;53.662;10.126;2022-08-01T03:17:45;7.70;;;6.90;;
23747;SDS011;12054;53.662;10.126;2022-08-01T03:20:13;14.35;;;7.38;;
23747;SDS011;12054;53.662;10.126;2022-08-01T03:22:40;8.48;;;6.85;;
23747;SDS011;12054;53.662;10.126;2022-08-01T03:25:08;8.80;;;6.90;;
23747;SDS011;12054;53.662;10.126;2022-08-01T03:27:37;9.50;;;7.63;;
23747;SDS011;12054;53.662;10.126;2022-08-01T03:30:04;9.50;;;7.82;;
23747;SDS011;12054;53.662;10.126;2022-08-01T03:32:31;9.43;;;8.15;;
23747;SDS011;12054;53.662;10.126;2022-08-01T03:34:57;11.57;;;8.75;;
23747;SDS011;12054;53.662;10.126;2022-08-01T03:39:57;10.85;;;8.82;;
23747;SDS011;12054;53.662;10.126;2022-08-01T03:43:02;11.70;;;9.05;;
23747;SDS011;12054;53.662;10.126;2022-08-01T03:45:23;11.15;;;9.23;;
23747;SDS011;12054;53.662;10.126;2022-08-01T03:47:52;11.23;;;9.02;;
23747;SDS011;12054;53.662;10.126;2022-08-01T03:50:50;12.77;;;9.23;;
23747;SDS011;12054;53.662;10.126;2022-08-01T03:53:19;11.55;;;10.07;;
23747;SDS011;12054;53.662;10.126;2022-08-01T03:55:47;12.63;;;9.13;;
23747;SDS011;12054;53.662;10.126;2022-08-01T03:58:14;10.52;;;8.65;;
23747;SDS011;12054;53.662;10.126;2022-08-01T04:00:40;11.80;;;8.95;;
23747;SDS011;12054;53.662;10.126;2022-08-01T04:03:07;10.07;;;9.05;;
23747;SDS011;12054;53.662;10.126;2022-08-01T04:05:33;11.05;;;9.23;;
23747;SDS011;12054;53.662;10.126;2022-08-01T04:08:00;9.02;;;7.50;;
23747;SDS011;12054;53.662;10.126;2022-08-01T04:10:27;9.07;;;8.05;;
23747;SDS011;12054;53.662;10.126;2022-08-01T04:12:53;8.88;;;8.02;;
23747;SDS011;12054;53.662;10.126;2022-08-01T04:15:19;12.90;;;8.85;;
23747;SDS011;12054;53.662;10.126;2022-08-01T04:17:45;11.63;;;8.93;;
23747;SDS011;12054;53.662;10.126;2022-08-01T04:20:10;9.25;;;8.25;;
23747;SDS011;12054;53.662;10.126;2022-08-01T04:22:36;9.27;;;8.38;;
23747;SDS011;12054;53.662;10.126;2022-08-01T04:25:04;9.55;;;8.52;;
23747;SDS011;12054;53.662;10.126;2022-08-01T04:27:36;10.25;;;7.82;;
23747;SDS011;12054;53.662;10.126;2022-08-01T04:30:04;8.90;;;7.13;;
23747;SDS011;12054;53.662;10.126;2022-08-01T04:32:32;9.07;;;7.30;;
23747;SDS011;12054;53.662;10.126;2022-08-01T04:35:00;7.55;;;6.63;;
23747;SDS011;12054;53.662;10.126;2022-08-01T04:37:32;10.32;;;8.07;;
23747;SDS011;12054;53.662;10.126;2022-08-01T04:40:02;8.30;;;7.47;;
23747;SDS011;12054;53.662;10.126;2022-08-01T04:42:30;8.45;;;7.63;;
23747;SDS011;12054;53.662;10.126;2022-08-01T04:44:56;8.98;;;7.97;;
23747;SDS011;12054;53.662;10.126;2022-08-01T04:47:22;12.80;;;7.90;;
23747;SDS011;12054;53.662;10.126;2022-08-01T04:49:49;11.20;;;7.93;;
23747;SDS011;12054;53.662;10.126;2022-08-01T04:52:15;9.52;;;8.07;;
23747;SDS011;12054;53.662;10.126;2022-08-01T04:54:42;15.82;;;7.85;;
23747;SDS011;12054;53.662;10.126;2022-08-01T04:57:08;10.20;;;6.88;;
23747;SDS011;12054;53.662;10.126;2022-08-01T04:59:34;8.40;;;6.65;;
23747;SDS011;12054;53.662;10.126;2022-08-01T05:02:06;11.32;;;6.82;;
23747;SDS011;12054;53.662;10.126;2022-08-01T05:04:40;9.68;;;7.22;;
23747;SDS011;12054;53.662;10.126;2022-08-01T05:07:07;6.55;;;5.32;;
23747;SDS011;12054;53.662;10.126;2022-08-01T05:09:33;6.18;;;4.72;;
23747;SDS011;12054;53.662;10.126;2022-08-01T05:12:01;8.02;;;5.25;;
23747;SDS011;12054;53.662;10.126;2022-08-01T05:14:28;4.78;;;3.70;;
23747;SDS011;12054;53.662;10.126;2022-08-01T05:16:56;3.75;;;3.35;;
23747;SDS011;12054;53.662;10.126;2022-08-01T05:19:24;3.78;;;3.38;;
23747;SDS011;12054;53.662;10.126;2022-08-01T05:21:49;5.18;;;3.45;;
23747;SDS011;12054;53.662;10.126;2022-08-01T05:24:15;3.80;;;3.40;;
23747;SDS011;12054;53.662;10.126;2022-08-01T05:26:40;2.83;;;2.60;;
23747;SDS011;12054;53.662;10.126;2022-08-01T05:29:06;2.60;;;2.22;;
23747;SDS011;12054;53.662;10.126;2022-08-01T05:31:32;3.50;;;2.33;;
23747;SDS011;12054;53.662;10.126;2022-08-01T05:33:59;2.92;;;2.38;;
23747;SDS011;12054;53.662;10.126;2022-08-01T05:36:26;2.83;;;2.30;;
23747;SDS011;12054;53.662;10.126;2022-08-01T05:38:51;2.20;;;2.00;;
23747;SDS011;12054;53.662;10.126;2022-08-01T05:41:17;2.40;;;2.20;;
23747;SDS011;12054;53.662;10.126;2022-08-01T05:43:42;2.95;;;2.58;;
23747;SDS011;12054;53.662;10.126;2022-08-01T05:46:08;2.60;;;2.33;;
23747;SDS011;12054;53.662;10.126;2022-08-01T05:48:33;2.50;;;2.30;;
23747;SDS011;12054;53.662;10.126;2022-08-01T05:50:59;5.10;;;2.40;;
23747;SDS011;12054;53.662;10.126;2022-08-01T05:53:25;3.83;;;2.42;;
23747;SDS011;12054;53.662;10.126;2022-08-01T05:55:50;7.60;;;2.80;;
23747;SDS011;12054;53.662;10.126;2022-08-01T05:58:16;2.53;;;2.28;;
23747;SDS011;12054;53.662;10.126;2022-08-01T06:00:41;2.35;;;2.15;;
23747;SDS011;12054;53.662;10.126;2022-08-01T06:03:07;4.00;;;2.65;;
23747;SDS011;12054;53.662;10.126;2022-08-01T06:05:32;3.90;;;2.45;;
23747;SDS011;12054;53.662;10.126;2022-08-01T06:07:58;4.55;;;2.65;;
23747;SDS011;12054;53.662;10.126;2022-08-01T06:10:23;4.55;;;2.65;;
23747;SDS011;12054;53.662;10.126;2022-08-01T06:12:49;6.25;;;2.55;;
23747;SDS011;12054;53.662;10.126;2022-08-01T06:15:15;4.35;;;2.35;;
23747;SDS011;12054;53.662;10.126;2022-08-01T06:17:41;4.22;;;2.10;;
23747;SDS011;12054;53.662;10.126;2022-08-01T06:20:07;6.30;;;2.42;;
23747;SDS011;12054;53.662;10.126;2022-08-01T06:22:33;7.60;;;2.50;;
23747;SDS011;12054;53.662;10.126;2022-08-01T06:24:59;6.03;;;2.50;;
23747;SDS011;12054;53.662;10.126;2022-08-01T06:27:24;5.35;;;2.28;;
23747;SDS011;12054;53.662;10.126;2022-08-01T06:29:50;5.60;;;2.65;;
23747;SDS011;12054;53.662;10.126;2022-08-01T06:32:18;7.50;;;2.55;;
23747;SDS011;12054;53.662;10.126;2022-08-01T06:34:44;6.63;;;2.45;;
23747;SDS011;12054;53.662;10.126;2022-08-01T06:37:10;6.53;;;2.22;;
23747;SDS011;12054;53.662;10.126;2022-08-01T06:39:38;6.60;;;2.38;;
23747;SDS011;12054;53.662;10.126;2022-08-01T06:42:03;8.38;;;2.40;;
23747;SDS011;12054;53.662;10.126;2022-08-01T06:44:29;6.28;;;2.80;;
23747;SDS011;12054;53.662;10.126;2022-08-01T06:46:54;6.65;;;2.30;;
23747;SDS011;12054;53.662;10.126;2022-08-01T06:49:20;5.68;;;2.22;;
23747;SDS011;12054;53.662;10.126;2022-08-01T06:51:45;6.13;;;2.38;;
23747;SDS011;12054;53.662;10.126;2022-08-01T06:54:11;5.95;;;2.65;;
23747;SDS011;12054;53.662;10.126;2022-08-01T06:56:36;5.53;;;2.40;;
23747;SDS011;12054;53.662;10.126;2022-08-01T06:59:02;5.65;;;2.60;;
23747;SDS011;12054;53.662;10.126;2022-08-01T07:01:27;5.78;;;2.30;;
23747;SDS011;12054;53.662;10.126;2022-08-01T07:03:54;4.57;;;2.05;;
23747;SDS011;12054;53.662;10.126;2022-08-01T07:06:20;6.03;;;2.67;;
23747;SDS011;12054;53.662;10.126;2022-08-01T07:08:49;6.15;;;2.40;;
23747;SDS011;12054;53.662;10.126;2022-08-01T07:11:15;11.02;;;3.10;;
23747;SDS011;12054;53.662;10.126;2022-08-01T07:13:41;6.68;;;2.97;;
23747;SDS011;12054;53.662;10.126;2022-08-01T07:16:06;7.70;;;3.20;;
23747;SDS011;12054;53.662;10.126;2022-08-01T07:18:32;6.72;;;3.63;;
23747;SDS011;12054;53.662;10.126;2022-08-01T07:20:57;7.47;;;3.40;;
23747;SDS011;12054;53.662;10.126;2022-08-01T07:23:23;6.20;;;3.53;;
23747;SDS011;12054;53.662;10.126;2022-08-01T07:25:49;8.10;;;3.90;;
23747;SDS011;12054;53.662;10.126;2022-08-01T07:28:15;9.23;;;4.20;;
23747;SDS011;12054;53.662;10.126;2022-08-01T07:30:41;10.00;;;3.63;;
23747;SDS011;12054;53.662;10.126;2022-08-01T07:33:09;9.93;;;3.85;;
23747;SDS011;12054;53.662;10.126;2022-08-01T07:35:34;9.52;;;3.60;;
23747;SDS011;12054;53.662;10.126;2022-08-01T07:38:03;8.48;;;3.80;;
23747;SDS011;12054;53.662;10.126;2022-08-01T07:40:29;6.72;;;3.25;;
23747;SDS011;12054;53.662;10.126;2022-08-01T07:42:55;10.65;;;3.60;;
23747;SDS011;12054;53.662;10.126;2022-08-01T07:45:21;11.45;;;3.50;;
23747;SDS011;12054;53.662;10.126;2022-08-01T07:47:47;9.23;;;3.78;;
23747;SDS011;12054;53.662;10.126;2022-08-01T07:50:14;10.40;;;4.35;;
23747;SDS011;12054;53.662;10.126;2022-08-01T07:52:41;6.35;;;3.75;;
23747;SDS011;12054;53.662;10.126;2022-08-01T07:55:07;8.90;;;3.83;;
23747;SDS011;12054;53.662;10.126;2022-08-01T07:57:33;9.73;;;3.83;;
23747;SDS011;12054;53.662;10.126;2022-08-01T08:00:00;7.05;;;3.30;;
23747;SDS011;12054;53.662;10.126;2022-08-01T08:02:26;8.52;;;3.40;;
23747;SDS011;12054;53.662;10.126;2022-08-01T08:04:51;9.38;;;3.85;;
23747;SDS011;12054;53.662;10.126;2022-08-01T08:07:17;8.45;;;2.83;;
23747;SDS011;12054;53.662;10.126;2022-08-01T08:09:42;8.23;;;2.72;;
23747;SDS011;12054;53.662;10.126;2022-08-01T08:12:08;7.60;;;3.17;;
23747;SDS011;12054;53.662;10.126;2022-08-01T08:14:34;8.50;;;2.83;;
23747;SDS011;12054;53.662;10.126;2022-08-01T08:17:00;6.60;;;2.28;;
23747;SDS011;12054;53.662;10.126;2022-08-01T08:19:26;10.50;;;2.78;;
23747;SDS011;12054;53.662;10.126;2022-08-01T08:21:51;7.20;;;2.78;;
23747;SDS011;12054;53.662;10.126;2022-08-01T08:24:17;8.50;;;3.30;;
23747;SDS011;12054;53.662;10.126;2022-08-01T08:26:49;7.10;;;2.85;;
23747;SDS011;12054;53.662;10.126;2022-08-01T08:29:19;8.05;;;3.50;;
23747;SDS011;12054;53.662;10.126;2022-08-01T08:31:46;12.90;;;3.20;;
23747;SDS011;12054;53.662;10.126;2022-08-01T08:34:12;7.15;;;3.00;;
23747;SDS011;12054;53.662;10.126;2022-08-01T08:36:37;7.15;;;2.80;;
23747;SDS011;12054;53.662;10.126;2022-08-01T08:39:03;6.32;;;3.10;;
23747;SDS011;12054;53.662;10.126;2022-08-01T08:41:30;6.40;;;2.83;;
23747;SDS011;12054;53.662;10.126;2022-08-01T08:43:56;7.10;;;2.80;;
23747;SDS011;12054;53.662;10.126;2022-08-01T08:46:23;5.30;;;3.00;;
23747;SDS011;12054;53.662;10.126;2022-08-01T08:48:51;9.02;;;3.83;;
23747;SDS011;12054;53.662;10.126;2022-08-01T08:51:17;9.35;;;3.88;;
23747;SDS011;12054;53.662;10.126;2022-08-01T08:53:44;7.63;;;3.65;;
23747;SDS011;12054;53.662;10.126;2022-08-01T08:56:12;10.10;;;3.90;;
23747;SDS011;12054;53.662;10.126;2022-08-01T08:58:39;10.60;;;3.78;;
23747;SDS011;12054;53.662;10.126;2022-08-01T09:01:08;9.73;;;3.40;;
23747;SDS011;12054;53.662;10.126;2022-08-01T09:03:35;4.72;;;2.75;;
23747;SDS011;12054;53.662;10.126;2022-08-01T09:06:01;5.57;;;3.08;;
23747;SDS011;12054;53.662;10.126;2022-08-01T09:08:27;6.72;;;2.80;;
23747;SDS011;12054;53.662;10.126;2022-08-01T09:10:53;5.00;;;2.40;;
23747;SDS011;12054;53.662;10.126;2022-08-01T09:13:19;6.03;;;2.58;;
23747;SDS011;12054;53.662;10.126;2022-08-01T09:15:52;8.13;;;2.83;;
23747;SDS011;12054;53.662;10.126;2022-08-01T09:18:38;4.85;;;2.45;;
23747;SDS011;12054;53.662;10.126;2022-08-01T09:23:42;4.65;;;1.98;;
23747;SDS011;12054;53.662;10.126;2022-08-01T09:26:16;9.98;;;2.50;;
23747;SDS011;12054;53.662;10.126;2022-08-01T09:28:44;5.20;;;1.80;;
23747;SDS011;12054;53.662;10.126;2022-08-01T09:31:12;7.10;;;1.90;;
23747;SDS011;12054;53.662;10.126;2022-08-01T09:36:45;4.55;;;1.98;;
23747;SDS011;12054;53.662;10.126;2022-08-01T09:39:21;4.50;;;2.00;;
23747;SDS011;12054;53.662;10.126;2022-08-01T09:41:51;5.32;;;1.67;;
23747;SDS011;12054;53.662;10.126;2022-08-01T09:44:18;6.18;;;2.20;;
23747;SDS011;12054;53.662;10.126;2022-08-01T09:46:49;4.10;;;2.03;;
23747;SDS011;12054;53.662;10.126;2022-08-01T09:49:14;9.70;;;2.53;;
23747;SDS011;12054;53.662;10.126;2022-08-01T09:51:58;5.15;;;2.08;;
23747;SDS011;12054;53.662;10.126;2022-08-01T09:54:34;7.25;;;2.50;;
23747;SDS011;12054;53.662;10.126;2022-08-01T09:57:13;6.75;;;2.25;;
23747;SDS011;12054;53.662;10.126;2022-08-01T09:59:41;8.55;;;2.28;;
23747;SDS011;12054;53.662;10.126;2022-08-01T10:02:12;8.55;;;2.78;;
23747;SDS011;12054;53.662;10.126;2022-08-01T10:04:50;5.88;;;2.25;;
23747;SDS011;12054;53.662;10.126;2022-08-01T10:07:16;6.07;;;2.13;;
23747;SDS011;12054;53.662;10.126;2022-08-01T10:09:43;6.40;;;1.88;;
23747;SDS011;12054;53.662;10.126;2022-08-01T10:12:11;7.63;;;1.75;;
23747;SDS011;12054;53.662;10.126;2022-08-01T10:14:38;7.30;;;2.05;;
23747;SDS011;12054;53.662;10.126;2022-08-01T10:17:06;5.93;;;1.85;;
23747;SDS011;12054;53.662;10.126;2022-08-01T10:19:33;7.03;;;1.65;;
23747;SDS011;12054;53.662;10.126;2022-08-01T10:22:00;4.32;;;1.60;;
23747;SDS011;12054;53.662;10.126;2022-08-01T10:24:27;6.20;;;1.80;;
23747;SDS011;12054;53.662;10.126;2022-08-01T10:26:59;7.30;;;1.65;;
23747;SDS011;12054;53.662;10.126;2022-08-01T10:29:29;5.63;;;1.80;;
23747;SDS011;12054;53.662;10.126;2022-08-01T10:32:00;8.02;;;1.63;;
23747;SDS011;12054;53.662;10.126;2022-08-01T10:34:26;9.27;;;1.83;;
23747;SDS011;12054;53.662;10.126;2022-08-01T10:36:54;6.10;;;1.90;;
23747;SDS011;12054;53.662;10.126;2022-08-01T10:39:20;8.88;;;1.70;;
23747;SDS011;12054;53.662;10.126;2022-08-01T10:41:46;6.13;;;1.42;;
23747;SDS011;12054;53.662;10.126;2022-08-01T10:44:11;5.45;;;1.45;;
23747;SDS011;12054;53.662;10.126;2022-08-01T10:46:38;5.95;;;1.90;;
23747;SDS011;12054;53.662;10.126;2022-08-01T10:49:06;3.70;;;1.77;;
23747;SDS011;12054;53.662;10.126;2022-08-01T10:51:36;5.93;;;1.80;;
23747;SDS011;12054;53.662;10.126;2022-08-01T10:54:05;5.40;;;2.05;;
23747;SDS011;12054;53.662;10.126;2022-08-01T10:56:47;4.28;;;1.70;;
23747;SDS011;12054;53.662;10.126;2022-08-01T10:59:15;4.32;;;1.33;;
23747;SDS011;12054;53.662;10.126;2022-08-01T11:01:55;4.10;;;1.38;;
23747;SDS011;12054;53.662;10.126;2022-08-01T11:04:41;3.53;;;1.40;;
23747;SDS011;12054;53.662;10.126;2022-08-01T11:10:19;4.13;;;1.50;;
23747;SDS011;12054;53.662;10.126;2022-08-01T11:12:50;4.63;;;1.80;;
23747;SDS011;12054;53.662;10.126;2022-08-01T11:15:16;5.15;;;1.60;;
23747;SDS011;12054;53.662;10.126;2022-08-01T11:17:49;4.68;;;1.70;;
23747;SDS011;12054;53.662;10.126;2022-08-01T11:25:27;5.70;;;1.55;;
23747;SDS011;12054;53.662;10.126;2022-08-01T11:30:39;4.93;;;1.30;;
23747;SDS011;12054;53.662;10.126;2022-08-01T11:33:05;4.45;;;1.40;;
23747;SDS011;12054;53.662;10.126;2022-08-01T11:35:31;5.72;;;1.60;;
23747;SDS011;12054;53.662;10.126;2022-08-01T11:40:47;5.30;;;1.50;;
23747;SDS011;12054;53.662;10.126;2022-08-01T11:49:22;6.47;;;1.48;;
23747;SDS011;12054;53.662;10.126;2022-08-01T11:51:56;5.45;;;1.70;;
23747;SDS011;12054;53.662;10.126;2022-08-01T11:54:29;5.28;;;1.63;;
23747;SDS011;12054;53.662;10.126;2022-08-01T11:56:57;5.85;;;1.60;;
23747;SDS011;12054;53.662;10.126;2022-08-01T11:59:24;5.47;;;1.88;;
23747;SDS011;12054;53.662;10.126;2022-08-01T12:01:50;6.10;;;1.77;;
23747;SDS011;12054;53.662;10.126;2022-08-01T12:04:16;4.10;;;1.20;;
23747;SDS011;12054;53.662;10.126;2022-08-01T12:06:41;4.93;;;1.20;;
23747;SDS011;12054;53.662;10.126;2022-08-01T12:09:21;5.50;;;1.50;;
23747;SDS011;12054;53.662;10.126;2022-08-01T12:11:48;12.65;;;1.63;;
23747;SDS011;12054;53.662;10.126;2022-08-01T12:14:18;3.45;;;1.10;;
23747;SDS011;12054;53.662;10.126;2022-08-01T12:16:48;4.53;;;1.30;;
23747;SDS011;12054;53.662;10.126;2022-08-01T12:19:19;4.53;;;1.10;;
23747;SDS011;12054;53.662;10.126;2022-08-01T12:22:08;6.68;;;1.33;;
23747;SDS011;12054;53.662;10.126;2022-08-01T12:24:38;4.30;;;1.20;;
23747;SDS011;12054;53.662;10.126;2022-08-01T12:27:06;4.53;;;1.40;;
23747;SDS011;12054;53.662;10.126;2022-08-01T12:29:40;6.97;;;1.45;;
23747;SDS011;12054;53.662;10.126;2022-08-01T12:32:22;5.60;;;1.30;;
23747;SDS011;12054;53.662;10.126;2022-08-01T12:35:05;10.18;;;1.52;;
23747;SDS011;12054;53.662;10.126;2022-08-01T12:37:34;6.70;;;1.55;;
23747;SDS011;12054;53.662;10.126;2022-08-01T12:42:44;4.47;;;1.15;;
23747;SDS011;12054;53.662;10.126;2022-08-01T12:45:14;5.30;;;1.40;;
23747;SDS011;12054;53.662;10.126;2022-08-01T12:47:44;5.28;;;1.40;;
23747;SDS011;12054;53.662;10.126;2022-08-01T12:50:14;6.25;;;1.35;;
23747;SDS011;12054;53.662;10.126;2022-08-01T12:52:42;4.93;;;1.23;;
23747;SDS011;12054;53.662;10.126;2022-08-01T12:55:13;3.47;;;1.17;;
23747;SDS011;12054;53.662;10.126;2022-08-01T12:57:40;5.47;;;1.40;;
23747;SDS011;12054;53.662;10.126;2022-08-01T13:02:39;5.00;;;1.30;;
23747;SDS011;12054;53.662;10.126;2022-08-01T13:05:06;5.40;;;1.20;;
23747;SDS011;12054;53.662;10.126;2022-08-01T13:07:35;3.15;;;1.20;;
23747;SDS011;12054;53.662;10.126;2022-08-01T13:10:05;5.90;;;1.23;;
23747;SDS011;12054;53.662;10.126;2022-08-01T13:12:32;4.18;;;1.20;;
23747;SDS011;12054;53.662;10.126;2022-08-01T13:14:57;3.53;;;1.00;;
23747;SDS011;12054;53.662;10.126;2022-08-01T13:17:32;3.33;;;1.17;;
23747;SDS011;12054;53.662;10.126;2022-08-01T13:20:04;4.88;;;1.35;;
23747;SDS011;12054;53.662;10.126;2022-08-01T13:22:36;4.68;;;1.05;;
23747;SDS011;12054;53.662;10.126;2022-08-01T13:25:12;5.10;;;1.40;;
23747;SDS011;12054;53.662;10.126;2022-08-01T13:27:38;4.30;;;1.15;;
23747;SDS011;12054;53.662;10.126;2022-08-01T13:30:15;4.68;;;1.20;;
23747;SDS011;12054;53.662;10.126;2022-08-01T13:32:42;5.72;;;1.52;;
23747;SDS011;12054;53.662;10.126;2022-08-01T13:35:10;4.13;;;1.17;;
23747;SDS011;12054;53.662;10.126;2022-08-01T13:37:38;3.05;;;1.08;;
23747;SDS011;12054;53.662;10.126;2022-08-01T13:40:06;4.25;;;1.10;;
23747;SDS011;12054;53.662;10.126;2022-08-01T13:42:33;4.10;;;1.13;;
23747;SDS011;12054;53.662;10.126;2022-08-01T13:44:59;3.95;;;1.50;;
23747;SDS011;12054;53.662;10.126;2022-08-01T13:47:24;4.43;;;1.42;;
23747;SDS011;12054;53.662;10.126;2022-08-01T13:49:50;4.18;;;1.10;;
23747;SDS011;12054;53.662;10.126;2022-08-01T13:52:15;3.50;;;1.00;;
23747;SDS011;12054;53.662;10.126;2022-08-01T13:54:41;4.32;;;1.10;;
23747;SDS011;12054;53.662;10.126;2022-08-01T13:57:06;4.70;;;1.23;;
23747;SDS011;12054;53.662;10.126;2022-08-01T13:59:32;4.03;;;1.48;;
23747;SDS011;12054;53.662;10.126;2022-08-01T14:01:57;6.93;;;1.17;;
23747;SDS011;12054;53.662;10.126;2022-08-01T14:04:23;3.55;;;1.20;;
23747;SDS011;12054;53.662;10.126;2022-08-01T14:06:49;4.30;;;1.27;;
23747;SDS011;12054;53.662;10.126;2022-08-01T14:09:14;2.55;;;1.00;;
23747;SDS011;12054;53.662;10.126;2022-08-01T14:11:42;5.00;;;1.08;;
23747;SDS011;12054;53.662;10.126;2022-08-01T14:14:08;4.80;;;1.20;;
23747;SDS011;12054;53.662;10.126;2022-08-01T14:16:33;3.33;;;1.35;;
23747;SDS011;12054;53.662;10.126;2022-08-01T14:18:59;2.88;;;1.15;;
23747;SDS011;12054;53.662;10.126;2022-08-01T14:21:25;6.20;;;1.27;;
23747;SDS011;12054;53.662;10.126;2022-08-01T14:23:50;7.68;;;1.20;;
23747;SDS011;12054;53.662;10.126;2022-08-01T14:26:16;5.50;;;1.27;;
23747;SDS011;12054;53.662;10.126;2022-08-01T14:28:41;4.65;;;1.40;;
23747;SDS011;12054;53.662;10.126;2022-08-01T14:31:07;5.47;;;1.27;;
23747;SDS011;12054;53.662;10.126;2022-08-01T14:33:32;5.75;;;1.10;;
23747;SDS011;12054;53.662;10.126;2022-08-01T14:35:58;5.78;;;1.30;;
23747;SDS011;12054;53.662;10.126;2022-08-01T14:38:24;4.63;;;1.23;;
23747;SDS011;12054;53.662;10.126;2022-08-01T14:40:50;6.00;;;1.40;;
23747;SDS011;12054;53.662;10.126;2022-08-01T14:43:16;3.83;;;0.90;;
23747;SDS011;12054;53.662;10.126;2022-08-01T14:45:42;3.78;;;1.30;;
23747;SDS011;12054;53.662;10.126;2022-08-01T14:48:08;6.32;;;1.60;;
23747;SDS011;12054;53.662;10.126;2022-08-01T14:50:33;3.80;;;1.38;;
23747;SDS011;12054;53.662;10.126;2022-08-01T14:52:59;5.07;;;1.30;;
23747;SDS011;12054;53.662;10.126;2022-08-01T14:55:24;3.92;;;1.30;;
23747;SDS011;12054;53.662;10.126;2022-08-01T14:57:51;5.97;;;1.50;;
23747;SDS011;12054;53.662;10.126;2022-08-01T15:00:17;4.53;;;1.20;;
23747;SDS011;12054;53.662;10.126;2022-08-01T15:02:43;5.13;;;1.60;;
23747;SDS011;12054;53.662;10.126;2022-08-01T15:05:09;5.32;;;1.58;;
23747;SDS011;12054;53.662;10.126;2022-08-01T15:07:35;5.05;;;1.50;;
23747;SDS011;12054;53.662;10.126;2022-08-01T15:10:02;7.25;;;1.80;;
23747;SDS011;12054;53.662;10.126;2022-08-01T15:12:29;5.15;;;1.75;;
23747;SDS011;12054;53.662;10.126;2022-08-01T15:14:54;6.68;;;1.98;;
23747;SDS011;12054;53.662;10.126;2022-08-01T15:17:30;6.07;;;1.83;;
23747;SDS011;12054;53.662;10.126;2022-08-01T15:19:58;5.45;;;1.38;;